createdAt,value
2018-12-23T00:01:01.912Z,6.70
2018-12-23T00:03:29.650Z,6.80
2018-12-23T00:05:57.313Z,6.70
2018-12-23T00:08:24.896Z,6.70
2018-12-23T00:10:52.424Z,6.70
2018-12-23T00:13:19.962Z,6.70
2018-12-23T00:15:47.523Z,6.70
2018-12-23T00:18:15.104Z,6.70
2018-12-23T00:20:42.688Z,6.70
2018-12-23T00:23:10.352Z,6.70
2018-12-23T00:25:37.881Z,6.70
2018-12-23T00:28:06.362Z,6.70
2018-12-23T00:30:33.916Z,6.60
2018-12-23T00:33:02.048Z,6.70
2018-12-23T00:35:29.756Z,6.70
2018-12-23T00:37:57.646Z,6.70
2018-12-23T00:40:25.281Z,6.70
2018-12-23T00:42:53.483Z,6.70
2018-12-23T00:45:21.215Z,6.70
2018-12-23T00:47:48.771Z,6.70
2018-12-23T00:50:16.697Z,6.60
2018-12-23T00:52:44.304Z,6.60
2018-12-23T00:55:11.903Z,6.70
2018-12-23T00:57:39.424Z,6.70
2018-12-23T01:00:07.415Z,6.70
2018-12-23T01:02:35.258Z,6.70
2018-12-23T01:05:03.634Z,6.70
2018-12-23T01:07:31.160Z,6.80
2018-12-23T01:09:58.780Z,6.80
2018-12-23T01:12:26.312Z,6.80
2018-12-23T01:14:53.931Z,6.80
2018-12-23T01:17:21.529Z,6.80
2018-12-23T01:19:49.304Z,6.80
2018-12-23T01:22:16.837Z,6.80
2018-12-23T01:24:44.364Z,6.80
2018-12-23T01:27:12.041Z,6.80
2018-12-23T01:29:39.635Z,6.80
2018-12-23T01:32:07.323Z,6.90
2018-12-23T01:34:37.177Z,6.80
2018-12-23T01:37:04.877Z,6.90
2018-12-23T01:39:32.456Z,6.90
2018-12-23T01:42:00.011Z,7.00
2018-12-23T01:44:27.649Z,7.00
2018-12-23T01:46:55.313Z,7.00
2018-12-23T01:49:23.812Z,7.00
2018-12-23T01:51:51.348Z,7.00
2018-12-23T01:54:19.000Z,7.10
2018-12-23T01:56:46.544Z,7.10
2018-12-23T01:59:14.131Z,7.10
2018-12-23T02:01:41.787Z,7.00
2018-12-23T02:04:09.372Z,7.00
2018-12-23T02:06:37.176Z,7.00
2018-12-23T02:09:05.424Z,7.00
2018-12-23T02:11:33.051Z,7.00
2018-12-23T02:14:00.837Z,7.00
2018-12-23T02:16:29.291Z,7.00
2018-12-23T02:18:57.055Z,7.00
2018-12-23T02:21:24.585Z,7.00
2018-12-23T02:23:52.111Z,7.10
2018-12-23T02:26:19.688Z,7.10
2018-12-23T02:28:47.289Z,7.10
2018-12-23T02:31:14.874Z,7.10
2018-12-23T02:33:42.452Z,7.10
2018-12-23T02:36:09.977Z,7.20
2018-12-23T02:38:38.216Z,7.20
2018-12-23T02:41:05.801Z,7.20
2018-12-23T02:43:33.412Z,7.10
2018-12-23T02:46:00.948Z,7.20
2018-12-23T02:48:29.392Z,7.20
2018-12-23T02:50:57.063Z,7.20
2018-12-23T02:53:24.619Z,7.20
2018-12-23T02:55:52.997Z,7.20
2018-12-23T02:58:20.563Z,7.30
2018-12-23T03:00:48.220Z,7.30
2018-12-23T03:03:15.838Z,7.30
2018-12-23T03:05:43.416Z,7.30
2018-12-23T03:08:10.974Z,7.30
2018-12-23T03:10:38.497Z,7.30
2018-12-23T03:13:06.116Z,7.30
2018-12-23T03:15:33.644Z,7.40
2018-12-23T03:18:01.241Z,7.40
2018-12-23T03:20:28.930Z,7.40
2018-12-23T03:22:56.480Z,7.40
2018-12-23T03:25:24.314Z,7.40
2018-12-23T03:27:51.863Z,7.30
2018-12-23T03:30:19.456Z,7.40
2018-12-23T03:32:47.207Z,7.30
2018-12-23T03:35:14.791Z,7.40
2018-12-23T03:37:42.584Z,7.30
2018-12-23T03:40:10.128Z,7.30
2018-12-23T03:42:37.756Z,7.30
2018-12-23T03:45:05.457Z,7.30
2018-12-23T03:47:33.065Z,7.40
2018-12-23T03:50:00.973Z,7.40
2018-12-23T03:52:28.549Z,7.30
2018-12-23T03:54:56.255Z,7.40
2018-12-23T03:57:24.526Z,7.40
2018-12-23T03:59:52.088Z,7.40
2018-12-23T04:02:20.367Z,7.40
2018-12-23T04:04:47.969Z,7.40
2018-12-23T04:07:15.578Z,7.40
2018-12-23T04:09:43.108Z,7.40
2018-12-23T04:12:10.654Z,7.40
2018-12-23T04:14:38.261Z,7.40
2018-12-23T04:17:06.123Z,7.40
2018-12-23T04:19:34.090Z,7.40
2018-12-23T04:22:01.664Z,7.40
2018-12-23T04:24:29.193Z,7.50
2018-12-23T04:26:56.768Z,7.50
2018-12-23T04:29:24.462Z,7.40
2018-12-23T04:31:52.025Z,7.50
2018-12-23T04:34:19.552Z,7.50
2018-12-23T04:36:47.125Z,7.50
2018-12-23T04:39:14.651Z,7.50
2018-12-23T04:41:42.179Z,7.50
2018-12-23T04:44:09.778Z,7.60
2018-12-23T04:46:37.371Z,7.60
2018-12-23T04:49:04.924Z,7.50
2018-12-23T04:51:32.491Z,7.50
2018-12-23T04:54:00.050Z,7.50
2018-12-23T04:56:27.882Z,7.50
2018-12-23T04:58:55.447Z,7.50
2018-12-23T05:01:23.213Z,7.60
2018-12-23T05:03:50.870Z,7.50
2018-12-23T05:06:18.440Z,7.50
2018-12-23T05:08:46.036Z,7.50
2018-12-23T05:11:13.559Z,7.50
2018-12-23T05:13:41.232Z,7.50
2018-12-23T05:16:08.866Z,7.50
2018-12-23T05:18:36.387Z,7.50
2018-12-23T05:21:04.007Z,7.50
2018-12-23T05:23:33.061Z,7.60
2018-12-23T05:26:00.737Z,7.60
2018-12-23T05:28:28.310Z,7.60
2018-12-23T05:30:56.079Z,7.50
2018-12-23T05:33:23.617Z,7.50
2018-12-23T05:35:51.281Z,7.50
2018-12-23T05:38:19.319Z,7.50
2018-12-23T05:40:46.840Z,7.50
2018-12-23T05:43:14.509Z,7.60
2018-12-23T05:45:42.056Z,7.60
2018-12-23T05:48:09.687Z,7.60
2018-12-23T05:50:37.353Z,7.60
2018-12-23T05:53:04.932Z,7.60
2018-12-23T05:55:32.915Z,7.60
2018-12-23T05:58:00.537Z,7.60
2018-12-23T06:00:28.956Z,7.60
2018-12-23T06:02:56.503Z,7.50
2018-12-23T06:05:24.163Z,7.50
2018-12-23T06:07:51.688Z,7.50
2018-12-23T06:10:19.204Z,7.50
2018-12-23T06:12:46.844Z,7.50
2018-12-23T06:15:14.402Z,7.50
2018-12-23T06:17:42.031Z,7.50
2018-12-23T06:20:09.692Z,7.50
2018-12-23T06:22:37.736Z,7.50
2018-12-23T06:25:05.427Z,7.50
2018-12-23T06:27:33.421Z,7.50
2018-12-23T06:30:00.953Z,7.50
2018-12-23T06:32:28.480Z,7.50
2018-12-23T06:34:56.100Z,7.50
2018-12-23T06:37:23.673Z,7.50
2018-12-23T06:39:51.288Z,7.50
2018-12-23T06:42:18.875Z,7.50
2018-12-23T06:44:46.396Z,7.50
2018-12-23T06:47:14.353Z,7.50
2018-12-23T06:49:41.922Z,7.50
2018-12-23T06:52:09.443Z,7.50
2018-12-23T06:54:37.078Z,7.50
2018-12-23T06:57:04.736Z,7.40
2018-12-23T06:59:34.683Z,7.40
2018-12-23T07:02:02.260Z,7.40
2018-12-23T07:04:29.820Z,7.40
2018-12-23T07:06:57.339Z,7.40
2018-12-23T07:09:24.856Z,7.30
2018-12-23T07:11:52.431Z,7.30
2018-12-23T07:14:19.956Z,7.40
2018-12-23T07:16:47.538Z,7.30
2018-12-23T07:19:15.199Z,7.30
2018-12-23T07:21:42.758Z,7.30
2018-12-23T07:24:10.317Z,7.30
2018-12-23T07:26:37.917Z,7.30
2018-12-23T07:29:05.538Z,7.30
2018-12-23T07:31:34.043Z,7.40
2018-12-23T07:34:01.612Z,7.40
2018-12-23T07:36:29.136Z,7.40
2018-12-23T07:38:56.667Z,7.30
2018-12-23T07:41:24.234Z,7.40
2018-12-23T07:43:51.811Z,7.40
2018-12-23T07:46:19.370Z,7.50
2018-12-23T07:48:47.032Z,7.50
2018-12-23T07:51:14.693Z,7.60
2018-12-23T07:53:42.216Z,7.60
2018-12-23T07:56:09.794Z,7.60
2018-12-23T07:58:37.369Z,7.70
2018-12-23T08:01:05.111Z,7.70
2018-12-23T08:03:32.684Z,7.70
2018-12-23T08:06:00.761Z,7.70
2018-12-23T08:08:28.278Z,7.70
2018-12-23T08:10:55.906Z,7.70
2018-12-23T08:13:24.153Z,7.70
2018-12-23T08:15:51.699Z,7.70
2018-12-23T08:18:19.301Z,7.70
2018-12-23T08:20:47.138Z,7.60
2018-12-23T08:23:14.696Z,7.60
2018-12-23T08:25:42.264Z,7.60
2018-12-23T08:28:09.843Z,7.60
2018-12-23T08:30:37.479Z,7.70
2018-12-23T08:33:05.407Z,7.80
2018-12-23T08:35:32.924Z,7.80
2018-12-23T08:38:00.453Z,7.80
2018-12-23T08:40:28.024Z,7.80
2018-12-23T08:42:56.135Z,7.90
2018-12-23T08:45:23.957Z,7.90
2018-12-23T08:47:51.596Z,7.90
2018-12-23T08:50:19.742Z,7.90
2018-12-23T08:52:47.371Z,7.90
2018-12-23T08:55:14.943Z,7.80
2018-12-23T08:57:42.569Z,8.00
2018-12-23T09:00:10.128Z,8.20
2018-12-23T09:02:37.715Z,8.20
2018-12-23T09:05:07.319Z,8.20
2018-12-23T09:07:36.096Z,8.20
2018-12-23T09:10:04.983Z,8.10
2018-12-23T09:12:32.516Z,8.10
2018-12-23T09:15:00.047Z,8.10
2018-12-23T09:17:27.643Z,8.00
2018-12-23T09:19:55.191Z,8.00
2018-12-23T09:22:22.831Z,8.00
2018-12-23T09:24:50.455Z,8.00
2018-12-23T09:27:18.100Z,7.90
2018-12-23T09:29:45.876Z,7.90
2018-12-23T09:32:13.543Z,7.90
2018-12-23T09:34:41.073Z,7.80
2018-12-23T09:37:08.768Z,7.80
2018-12-23T09:39:36.495Z,7.80
2018-12-23T09:42:04.032Z,7.80
2018-12-23T09:44:31.610Z,7.80
2018-12-23T09:46:59.181Z,7.80
2018-12-23T09:49:26.714Z,7.80
2018-12-23T09:51:54.415Z,7.90
2018-12-23T09:54:21.986Z,7.90
2018-12-23T09:56:49.610Z,7.90
2018-12-23T09:59:17.372Z,8.00
2018-12-23T10:01:45.444Z,7.90
2018-12-23T10:04:12.996Z,8.00
2018-12-23T10:06:40.519Z,8.00
2018-12-23T10:09:08.427Z,8.00
2018-12-23T10:11:36.191Z,8.10
2018-12-23T10:14:03.836Z,8.10
2018-12-23T10:16:31.514Z,8.00
2018-12-23T10:18:59.865Z,8.00
2018-12-23T10:21:27.480Z,8.00
2018-12-23T10:23:55.052Z,8.00
2018-12-23T10:26:22.811Z,8.10
2018-12-23T10:28:50.742Z,8.10
2018-12-23T10:31:18.438Z,8.20
2018-12-23T10:33:46.183Z,8.10
2018-12-23T10:36:13.930Z,8.10
2018-12-23T10:38:41.593Z,8.20
2018-12-23T10:41:10.451Z,8.20
2018-12-23T10:43:38.078Z,8.20
2018-12-23T10:46:05.719Z,8.20
2018-12-23T10:48:33.239Z,8.20
2018-12-23T10:51:00.763Z,8.20
2018-12-23T10:53:28.344Z,8.20
2018-12-23T10:55:56.100Z,8.20
2018-12-23T10:58:23.623Z,8.20
2018-12-23T11:00:51.296Z,8.20
2018-12-23T11:03:18.919Z,8.30
2018-12-23T11:05:46.447Z,8.20
2018-12-23T11:08:14.069Z,8.20
2018-12-23T11:10:41.643Z,8.20
2018-12-23T11:13:09.176Z,8.20
2018-12-23T11:15:37.668Z,8.20
2018-12-23T11:18:05.299Z,8.20
2018-12-23T11:20:32.962Z,8.20
2018-12-23T11:23:00.626Z,8.20
2018-12-23T11:25:28.285Z,8.20
2018-12-23T11:27:55.884Z,8.20
2018-12-23T11:30:23.603Z,8.20
2018-12-23T11:32:51.353Z,8.10
2018-12-23T11:35:18.871Z,8.10
2018-12-23T11:37:46.902Z,8.10
2018-12-23T11:40:14.450Z,8.10
2018-12-23T11:42:42.808Z,8.10
2018-12-23T11:45:10.385Z,8.10
2018-12-23T11:47:39.267Z,8.20
2018-12-23T11:50:06.797Z,8.20
2018-12-23T11:52:34.361Z,8.20
2018-12-23T11:55:02.979Z,8.20
2018-12-23T11:57:30.743Z,8.30
2018-12-23T11:59:58.506Z,8.30
2018-12-23T12:02:26.034Z,8.30
2018-12-23T12:04:53.575Z,8.30
2018-12-23T12:07:21.168Z,8.30
2018-12-23T12:09:48.771Z,8.30
2018-12-23T12:12:16.429Z,8.30
2018-12-23T12:14:44.168Z,8.30
2018-12-23T12:17:11.831Z,8.30
2018-12-23T12:19:39.364Z,8.30
2018-12-23T12:22:06.954Z,8.30
2018-12-23T12:24:34.531Z,8.30
2018-12-23T12:27:02.815Z,8.30
2018-12-23T12:29:30.544Z,8.30
2018-12-23T12:31:58.067Z,8.30
2018-12-23T12:34:25.670Z,8.40
2018-12-23T12:36:53.220Z,8.40
2018-12-23T12:39:20.751Z,8.30
2018-12-23T12:41:48.332Z,8.30
2018-12-23T12:44:16.532Z,8.30
2018-12-23T12:46:44.217Z,8.30
2018-12-23T12:49:11.740Z,8.30
2018-12-23T12:51:39.394Z,8.30
2018-12-23T12:54:07.523Z,8.30
2018-12-23T12:56:35.066Z,8.30
2018-12-23T12:59:02.621Z,8.30
2018-12-23T13:01:30.196Z,8.30
2018-12-23T13:03:58.972Z,8.20
2018-12-23T13:06:27.409Z,8.20
2018-12-23T13:09:00.444Z,8.20
2018-12-23T13:11:24.864Z,8.20
2018-12-23T13:13:52.516Z,8.20
2018-12-23T13:16:20.208Z,8.10
2018-12-23T13:18:47.967Z,8.10
2018-12-23T13:21:16.419Z,8.00
2018-12-23T13:23:44.033Z,8.00
2018-12-23T13:26:11.565Z,7.90
2018-12-23T13:28:39.204Z,7.90
2018-12-23T13:31:06.893Z,7.90
2018-12-23T13:33:34.415Z,7.90
2018-12-23T13:36:01.946Z,7.90
2018-12-23T13:38:29.589Z,7.90
2018-12-23T13:41:02.685Z,7.90
2018-12-23T13:43:42.193Z,7.90
2018-12-23T13:50:00.849Z,7.90
2018-12-23T13:52:42.230Z,7.90
2018-12-23T13:55:23.045Z,7.90
2018-12-23T13:58:04.317Z,7.90
2018-12-23T14:00:45.071Z,7.90
2018-12-23T14:03:26.533Z,7.80
2018-12-23T14:06:07.490Z,7.80
2018-12-23T14:08:48.719Z,7.80
2018-12-23T14:11:29.499Z,7.70
2018-12-23T14:14:10.973Z,7.70
2018-12-23T14:16:52.206Z,7.70
2018-12-23T14:19:32.678Z,7.80
2018-12-23T14:22:13.647Z,7.70
2018-12-23T14:24:54.437Z,7.80
2018-12-23T14:27:35.502Z,7.80
2018-12-23T14:30:16.388Z,7.80
2018-12-23T14:32:56.845Z,7.80
2018-12-23T14:35:38.118Z,7.70
2018-12-23T14:38:19.495Z,7.70
2018-12-23T14:41:00.604Z,7.70
2018-12-23T14:46:24.619Z,7.80
2018-12-23T14:49:05.385Z,7.70
2018-12-23T14:51:46.336Z,7.70
2018-12-23T14:54:27.793Z,7.70
2018-12-23T14:57:08.552Z,7.70
2018-12-23T14:59:50.049Z,7.70
2018-12-23T15:02:30.645Z,7.70
2018-12-23T15:05:11.890Z,7.70
2018-12-23T15:07:53.485Z,7.70
2018-12-23T15:10:34.349Z,7.70
2018-12-23T15:13:15.373Z,7.70
2018-12-23T15:15:56.294Z,7.80
2018-12-23T15:18:37.269Z,7.80
2018-12-23T15:21:18.339Z,7.80
2018-12-23T15:23:59.222Z,7.80
2018-12-23T15:26:40.521Z,7.80
2018-12-23T15:29:21.749Z,7.90
2018-12-23T15:32:03.085Z,7.90
2018-12-23T15:34:44.622Z,7.90
2018-12-23T15:37:25.715Z,7.90
2018-12-23T15:40:06.682Z,7.90
2018-12-23T15:42:35.401Z,7.90
2018-12-23T15:45:23.420Z,7.90
2018-12-23T15:48:11.524Z,7.90
2018-12-23T15:50:59.562Z,7.90
2018-12-23T15:56:40.826Z,7.90
2018-12-23T15:59:28.877Z,7.90
2018-12-23T16:02:16.914Z,7.90
2018-12-23T16:05:05.002Z,7.90
2018-12-23T16:07:53.016Z,7.90
2018-12-23T16:10:21.814Z,7.90
2018-12-23T16:16:16.792Z,7.90
2018-12-23T16:19:04.879Z,7.90
2018-12-23T16:21:52.932Z,7.90
2018-12-23T16:24:42.515Z,7.90
2018-12-23T16:27:30.666Z,7.90
2018-12-23T16:30:18.693Z,7.90
2018-12-23T16:33:06.757Z,7.90
2018-12-23T16:35:54.776Z,7.90
2018-12-23T16:38:42.879Z,7.90
2018-12-23T16:41:30.891Z,7.90
2018-12-23T16:44:18.946Z,7.90
2018-12-23T16:46:59.579Z,8.00
2018-12-23T16:49:40.989Z,8.00
2018-12-23T16:52:21.716Z,8.00
2018-12-23T16:55:02.707Z,7.90
2018-12-23T16:57:43.780Z,7.90
2018-12-23T17:00:24.466Z,7.90
2018-12-23T17:03:05.212Z,7.90
2018-12-23T17:05:46.366Z,7.90
2018-12-23T17:08:27.726Z,7.90
2018-12-23T17:11:08.413Z,7.90
2018-12-23T17:13:49.275Z,7.90
2018-12-23T17:16:30.030Z,7.90
2018-12-23T17:19:10.674Z,7.90
2018-12-23T17:21:52.138Z,7.90
2018-12-23T17:24:32.961Z,7.90
2018-12-23T17:27:13.858Z,7.90
2018-12-23T17:29:42.536Z,7.90
2018-12-23T17:32:11.215Z,7.90
2018-12-23T17:34:39.927Z,7.90
2018-12-23T17:37:08.603Z,7.80
2018-12-23T17:39:37.460Z,7.80
2018-12-23T17:42:06.192Z,7.80
2018-12-23T17:44:54.253Z,7.80
2018-12-23T17:47:42.265Z,7.80
2018-12-23T17:50:30.337Z,7.80
2018-12-23T17:53:18.361Z,7.80
2018-12-23T17:56:06.553Z,7.80
2018-12-23T18:02:01.697Z,7.80
2018-12-23T18:04:49.731Z,7.80
2018-12-23T18:07:37.809Z,7.80
2018-12-23T18:10:25.912Z,7.80
2018-12-23T18:13:13.992Z,7.70
2018-12-23T18:16:02.021Z,7.60
2018-12-23T18:21:43.432Z,7.40
2018-12-23T18:24:31.498Z,7.30
2018-12-23T18:27:31.230Z,7.30
2018-12-23T18:30:09.301Z,7.30
2018-12-23T18:32:57.401Z,7.20
2018-12-23T18:35:45.816Z,7.30
2018-12-23T18:38:27.224Z,7.30
2018-12-23T18:41:08.242Z,7.30
2018-12-23T18:43:49.285Z,7.30
2018-12-23T18:46:29.838Z,7.30
2018-12-23T18:49:10.842Z,7.20
2018-12-23T18:51:51.798Z,7.20
2018-12-23T18:54:33.130Z,7.30
2018-12-23T18:57:14.243Z,7.20
2018-12-23T18:59:55.521Z,7.20
2018-12-23T19:02:36.781Z,7.20
2018-12-23T19:05:18.220Z,7.20
2018-12-23T19:07:58.262Z,7.20
2018-12-23T19:11:07.141Z,7.20
2018-12-23T19:14:14.840Z,7.20
2018-12-23T19:17:23.632Z,7.10
2018-12-23T19:20:30.965Z,7.10
2018-12-23T19:23:38.435Z,7.00
2018-12-23T19:26:45.789Z,7.00
2018-12-23T19:29:53.280Z,7.10
2018-12-23T19:36:52.324Z,7.10
2018-12-23T19:42:30.308Z,7.10
2018-12-23T19:45:37.773Z,7.10
2018-12-23T19:49:04.586Z,7.00
2018-12-23T19:51:55.863Z,7.00
2018-12-23T19:55:03.261Z,7.00
2018-12-23T19:58:12.015Z,7.10
2018-12-23T20:01:20.811Z,7.10
2018-12-23T20:04:28.396Z,7.20
2018-12-23T20:11:12.581Z,7.20
2018-12-23T20:17:34.937Z,7.30
2018-12-23T20:20:42.671Z,7.40
2018-12-23T20:23:49.960Z,7.40
2018-12-23T20:26:57.625Z,7.30
2018-12-23T20:30:06.342Z,7.20
2018-12-23T20:33:13.742Z,7.10
2018-12-23T20:36:21.086Z,7.10
2018-12-23T20:39:02.685Z,7.00
2018-12-23T20:41:43.301Z,7.00
2018-12-23T20:44:23.759Z,7.00
2018-12-23T20:47:04.731Z,7.00
2018-12-23T20:49:46.267Z,6.90
2018-12-23T20:52:27.576Z,6.90
2018-12-23T20:55:08.700Z,6.90
2018-12-23T20:57:49.499Z,6.90
2018-12-23T21:00:30.896Z,6.90
2018-12-23T21:03:11.702Z,6.90
2018-12-23T21:05:52.932Z,6.90
2018-12-23T21:08:33.886Z,6.80
2018-12-23T21:11:16.104Z,6.80
2018-12-23T21:13:57.294Z,6.80
2018-12-23T21:16:37.930Z,6.80
2018-12-23T21:19:18.629Z,6.80
2018-12-23T21:21:59.511Z,6.70
2018-12-23T21:24:40.659Z,6.70
2018-12-23T21:27:21.241Z,6.70
2018-12-23T21:29:55.537Z,6.70
2018-12-23T21:32:43.720Z,6.70
2018-12-23T21:35:21.029Z,6.70
2018-12-23T21:38:19.892Z,6.60
2018-12-23T21:40:54.449Z,6.70
2018-12-23T21:44:01.904Z,6.70
2018-12-23T21:47:09.244Z,6.70
2018-12-23T21:50:16.626Z,6.60
2018-12-23T21:53:23.961Z,6.40
2018-12-23T21:56:04.638Z,6.60
2018-12-23T21:58:45.779Z,6.70
2018-12-23T22:01:29.752Z,6.70
2018-12-23T22:04:10.767Z,6.70
2018-12-23T22:06:45.065Z,6.70
2018-12-23T22:09:16.810Z,6.70
2018-12-23T22:12:20.081Z,6.70
2018-12-23T22:15:08.096Z,6.70
2018-12-23T22:17:56.170Z,6.60
2018-12-23T22:20:44.185Z,6.60
2018-12-23T22:23:32.248Z,6.50
2018-12-23T22:26:20.256Z,6.60
2018-12-23T22:29:08.317Z,6.60
2018-12-23T22:31:56.357Z,6.50
2018-12-23T22:34:44.417Z,6.50
2018-12-23T22:37:32.424Z,6.50
2018-12-23T22:40:01.136Z,6.50
2018-12-23T22:42:49.149Z,6.50
2018-12-23T22:45:37.199Z,6.50
2018-12-23T22:48:25.209Z,6.50
2018-12-23T22:51:13.277Z,6.40
2018-12-23T22:53:41.951Z,6.50
2018-12-23T22:56:30.014Z,6.40
2018-12-23T22:59:10.976Z,6.40
2018-12-23T23:01:52.140Z,6.50
2018-12-23T23:04:33.274Z,6.50
2018-12-23T23:07:14.270Z,6.40
2018-12-23T23:09:54.833Z,6.50
2018-12-23T23:12:35.558Z,6.40
2018-12-23T23:15:16.180Z,6.40
2018-12-23T23:17:56.898Z,6.40
2018-12-23T23:20:37.338Z,6.40
2018-12-23T23:23:17.887Z,6.40
2018-12-23T23:25:58.742Z,6.40
2018-12-23T23:28:39.706Z,6.40
2018-12-23T23:31:20.666Z,6.30
2018-12-23T23:34:01.746Z,6.40
2018-12-23T23:36:42.602Z,6.30
2018-12-23T23:39:23.329Z,6.30
2018-12-23T23:42:04.042Z,6.20
2018-12-23T23:44:44.852Z,6.20
2018-12-23T23:47:25.578Z,6.20
2018-12-23T23:50:06.141Z,6.20
2018-12-23T23:52:46.693Z,6.20
2018-12-23T23:55:27.886Z,6.20
2018-12-23T23:58:08.386Z,6.20
